Time;durP1;ratioP1;P1;durP2;ratioP2;P2;SDS_P1;SDS_P2;PMS_P1;PMS_P2;Temp;Humidity;BMP_temperature;BMP_pressure;BME280_temperature;BME280_humidity;BME280_pressure;Samples;Min_cycle;Max_cycle;Signal;HPM_P1;HPM_P2
2021/07/17 00:02:08;;;;;;;23.47;11.87;;;20.90;99.90;;;;;;5122824;27;20653;-66
2021/07/17 00:04:56;;;;;;;22.57;12.83;;;20.80;99.90;;;;;;5155243;27;20197;-66
2021/07/17 00:07:44;;;;;;;20.33;12.23;;;20.70;99.90;;;;;;5165124;27;20192;-66
2021/07/17 00:10:37;;;;;;;19.63;11.13;;;20.80;99.90;;;;;;5164946;27;20669;-66
2021/07/17 00:13:24;;;;;;;21.80;12.30;;;20.80;99.90;;;;;;5163516;27;20200;-66
2021/07/17 00:16:12;;;;;;;24.03;12.27;;;20.70;99.90;;;;;;5160912;27;20198;-66
2021/07/17 00:18:59;;;;;;;20.00;12.70;;;20.70;99.90;;;;;;5174353;27;20233;-66
2021/07/17 00:21:47;;;;;;;21.33;12.90;;;20.60;99.90;;;;;;5174347;27;20666;-66
2021/07/17 00:24:34;;;;;;;26.60;12.67;;;20.60;99.90;;;;;;5172199;27;20517;-66
2021/07/17 00:27:24;;;;;;;17.67;12.37;;;20.60;99.90;;;;;;5175345;27;20197;-66
2021/07/17 00:30:12;;;;;;;20.53;12.50;;;20.50;99.90;;;;;;5150783;27;20300;-66
2021/07/17 00:33:00;;;;;;;24.13;11.70;;;20.40;99.90;;;;;;5172653;27;20194;-66
2021/07/17 00:35:48;;;;;;;20.30;12.10;;;20.40;99.90;;;;;;5160283;27;20713;-66
2021/07/17 00:38:35;;;;;;;20.47;13.07;;;20.30;99.90;;;;;;5154728;27;20367;-66
2021/07/17 00:41:23;;;;;;;22.03;12.20;;;20.30;99.90;;;;;;5165185;27;20655;-66
2021/07/17 00:44:12;;;;;;;22.23;12.80;;;20.30;99.90;;;;;;5142533;27;20233;-66
2021/07/17 00:46:59;;;;;;;21.30;12.57;;;20.30;99.90;;;;;;5133700;27;20222;-66
2021/07/17 00:49:47;;;;;;;25.30;12.80;;;20.20;99.90;;;;;;5153865;27;20213;-66
2021/07/17 00:52:34;;;;;;;26.00;12.47;;;20.20;99.90;;;;;;5150926;27;20197;-66
2021/07/17 00:55:25;;;;;;;19.40;12.03;;;20.20;99.90;;;;;;5145644;27;20208;-66
2021/07/17 00:58:12;;;;;;;19.63;12.27;;;20.10;99.90;;;;;;5126176;27;20629;-66
2021/07/17 01:01:01;;;;;;;22.47;12.10;;;20.10;99.90;;;;;;5149121;27;20194;-66
2021/07/17 01:03:48;;;;;;;22.50;12.53;;;20.10;99.90;;;;;;5152029;27;20186;-66
2021/07/17 01:06:36;;;;;;;20.13;13.07;;;20.10;99.90;;;;;;5133101;27;20230;-66
2021/07/17 01:09:23;;;;;;;26.30;12.60;;;20.00;99.90;;;;;;5139738;27;20202;-66
2021/07/17 01:12:11;;;;;;;27.57;11.50;;;20.00;99.90;;;;;;5153026;27;20596;-66
2021/07/17 01:14:58;;;;;;;21.67;11.70;;;19.90;99.90;;;;;;5145443;27;20194;-66
2021/07/17 01:17:47;;;;;;;16.27;12.83;;;19.90;99.90;;;;;;5132787;27;20275;-66
2021/07/17 01:20:35;;;;;;;23.73;14.17;;;19.90;99.90;;;;;;5112533;27;20290;-66
2021/07/17 01:23:24;;;;;;;20.10;12.93;;;19.80;99.90;;;;;;5112539;27;20199;-66
2021/07/17 01:26:12;;;;;;;21.10;14.17;;;19.80;99.90;;;;;;5126672;27;20293;-66
2021/07/17 01:28:59;;;;;;;22.27;13.30;;;19.80;99.90;;;;;;5130244;27;20220;-66
2021/07/17 01:31:47;;;;;;;23.67;13.73;;;19.80;99.90;;;;;;5124103;27;20218;-66
2021/07/17 01:34:34;;;;;;;23.43;12.97;;;19.80;99.90;;;;;;5130604;27;20203;-66
2021/07/17 01:37:22;;;;;;;24.73;12.83;;;19.80;99.90;;;;;;5122483;27;20199;-66
2021/07/17 01:40:18;;;;;;;27.57;14.47;;;19.80;99.90;;;;;;5120953;27;20194;-66
2021/07/17 01:43:06;;;;;;;26.13;15.40;;;19.80;99.90;;;;;;5131471;27;20202;-66
2021/07/17 01:45:58;;;;;;;26.37;15.03;;;19.80;99.90;;;;;;5119649;27;20270;-66
2021/07/17 01:48:51;;;;;;;25.03;15.33;;;19.80;99.90;;;;;;5131592;27;20273;-66
2021/07/17 01:51:39;;;;;;;27.00;15.27;;;19.70;99.90;;;;;;5117071;27;20215;-66
2021/07/17 01:54:26;;;;;;;27.27;16.03;;;19.80;99.90;;;;;;5112926;27;20202;-66
2021/07/17 01:57:15;;;;;;;25.57;15.90;;;19.80;99.90;;;;;;5131352;27;20195;-66
2021/07/17 02:00:03;;;;;;;30.57;16.30;;;19.80;99.90;;;;;;5126593;27;20263;-66
2021/07/17 02:02:51;;;;;;;30.43;15.73;;;19.80;99.90;;;;;;5130659;27;20195;-66
2021/07/17 02:05:38;;;;;;;25.37;15.73;;;19.80;99.90;;;;;;5121248;27;20663;-66
2021/07/17 02:08:26;;;;;;;28.37;16.13;;;19.80;99.90;;;;;;5112394;27;20207;-66
2021/07/17 02:11:14;;;;;;;30.00;16.00;;;19.80;99.90;;;;;;5105357;27;20961;-66
2021/07/17 02:14:03;;;;;;;24.97;15.57;;;19.80;99.90;;;;;;5111165;28;20856;-66
2021/07/17 02:16:50;;;;;;;27.53;15.63;;;19.80;99.90;;;;;;5129959;27;20287;-66
2021/07/17 02:19:38;;;;;;;26.20;14.40;;;19.90;99.90;;;;;;5143449;27;20680;-66
2021/07/17 02:22:25;;;;;;;33.37;15.67;;;19.90;99.90;;;;;;5152860;27;20206;-66
2021/07/17 02:25:12;;;;;;;26.03;15.23;;;19.90;99.90;;;;;;5148253;27;20659;-66
2021/07/17 02:28:01;;;;;;;22.70;14.50;;;19.90;99.90;;;;;;5121903;27;20327;-66
2021/07/17 02:30:50;;;;;;;22.50;14.43;;;19.80;99.90;;;;;;5134773;27;20223;-66
2021/07/17 02:33:37;;;;;;;30.27;15.70;;;19.80;99.90;;;;;;5151504;27;20206;-66
2021/07/17 02:36:25;;;;;;;21.63;14.07;;;19.80;99.90;;;;;;5134800;27;20198;-66
2021/07/17 02:39:14;;;;;;;25.13;13.97;;;19.80;99.90;;;;;;5135287;27;20228;-66
2021/07/17 02:42:01;;;;;;;23.17;13.67;;;19.70;99.90;;;;;;5132585;27;20206;-66
2021/07/17 02:44:49;;;;;;;28.73;13.93;;;19.80;99.90;;;;;;5132141;27;20687;-66
2021/07/17 02:47:38;;;;;;;23.17;13.40;;;19.70;99.90;;;;;;5150699;27;20668;-66
2021/07/17 02:51:12;;;;;;;21.77;12.80;;;19.70;99.90;;;;;;5152119;27;20225;-65
2021/07/17 02:53:59;;;;;;;22.50;13.53;;;19.70;99.90;;;;;;5129668;27;20562;-66
2021/07/17 02:56:47;;;;;;;23.77;13.00;;;19.60;99.90;;;;;;5136402;27;20197;-65
2021/07/17 02:59:35;;;;;;;27.33;13.80;;;19.50;99.90;;;;;;5135359;27;20194;-66
2021/07/17 03:02:22;;;;;;;32.87;13.00;;;19.50;99.90;;;;;;5135371;27;20187;-65
2021/07/17 03:05:13;;;;;;;21.87;13.13;;;19.50;99.90;;;;;;5144868;27;20205;-66
2021/07/17 03:08:00;;;;;;;30.93;13.30;;;19.50;99.90;;;;;;5154240;27;20197;-66
2021/07/17 03:10:48;;;;;;;22.83;13.10;;;19.50;99.90;;;;;;5155149;27;20229;-65
2021/07/17 03:13:35;;;;;;;24.20;13.20;;;19.50;99.90;;;;;;5154569;27;20727;-66
2021/07/17 03:16:23;;;;;;;27.57;12.80;;;19.40;99.90;;;;;;5135862;27;20206;-66
2021/07/17 03:19:11;;;;;;;20.20;13.40;;;19.40;99.90;;;;;;5135399;27;20320;-66
2021/07/17 03:22:00;;;;;;;21.90;13.17;;;19.50;99.90;;;;;;5136929;27;20201;-66
2021/07/17 03:24:47;;;;;;;21.27;14.70;;;19.50;99.90;;;;;;5144298;27;20614;-65
2021/07/17 03:27:35;;;;;;;26.30;14.77;;;19.60;99.90;;;;;;5153909;27;20197;-65
2021/07/17 03:30:23;;;;;;;24.00;14.87;;;19.60;99.90;;;;;;5153498;27;20223;-65
2021/07/17 03:33:10;;;;;;;26.70;15.53;;;19.60;99.90;;;;;;5144756;27;20212;-65
2021/07/17 03:35:58;;;;;;;35.57;15.47;;;19.70;99.90;;;;;;5138786;27;20324;-66
2021/07/17 03:38:47;;;;;;;24.23;14.40;;;19.70;99.90;;;;;;5134674;27;20248;-66
2021/07/17 03:41:36;;;;;;;23.30;14.90;;;19.80;99.90;;;;;;5142053;27;20532;-66
2021/07/17 03:44:27;;;;;;;28.33;16.00;;;19.80;99.90;;;;;;5152613;27;20277;-66
2021/07/17 03:47:14;;;;;;;29.27;15.90;;;19.90;99.90;;;;;;5133836;27;20227;-65
2021/07/17 03:50:01;;;;;;;22.80;15.53;;;19.90;99.90;;;;;;5145159;27;20190;-65
2021/07/17 03:52:49;;;;;;;24.77;15.23;;;20.00;99.90;;;;;;5153983;27;20201;-66
2021/07/17 03:55:38;;;;;;;26.57;15.10;;;20.00;99.90;;;;;;5138852;27;20198;-66
2021/07/17 03:58:25;;;;;;;25.50;15.37;;;20.00;99.90;;;;;;5153444;27;20245;-66
2021/07/17 04:01:13;;;;;;;26.17;14.23;;;20.10;99.90;;;;;;5148696;27;20246;-65
2021/07/17 04:04:01;;;;;;;24.03;14.30;;;20.10;99.90;;;;;;5142509;27;20190;-66
2021/07/17 04:06:48;;;;;;;23.17;14.37;;;20.10;99.90;;;;;;5126875;27;20198;-65
2021/07/17 04:09:36;;;;;;;21.87;14.37;;;20.10;99.90;;;;;;5133887;27;20589;-65
2021/07/17 04:12:25;;;;;;;23.53;14.50;;;20.20;99.90;;;;;;5133871;27;20303;-66
2021/07/17 04:15:13;;;;;;;18.83;12.93;;;20.20;99.90;;;;;;5135481;27;20334;-65
2021/07/17 04:18:00;;;;;;;20.60;13.43;;;20.30;99.90;;;;;;5154737;27;20205;-66
2021/07/17 04:20:48;;;;;;;20.80;13.50;;;20.30;99.90;;;;;;5152690;27;20943;-66
2021/07/17 04:23:35;;;;;;;24.17;13.63;;;20.40;99.90;;;;;;5127462;27;20202;-65
2021/07/17 04:26:23;;;;;;;23.10;13.03;;;20.40;99.90;;;;;;5149619;27;20193;-65
2021/07/17 04:29:13;;;;;;;21.20;11.97;;;20.40;99.90;;;;;;5141029;27;20197;-66
2021/07/17 04:32:01;;;;;;;24.83;13.33;;;20.50;99.90;;;;;;5146884;27;20252;-65
2021/07/17 04:34:48;;;;;;;19.13;12.60;;;20.60;99.90;;;;;;5154803;27;20571;-65
2021/07/17 04:37:36;;;;;;;19.23;12.13;;;20.70;99.90;;;;;;5129969;27;20206;-66
2021/07/17 04:40:23;;;;;;;21.17;12.77;;;20.70;99.90;;;;;;5154284;27;20205;-65
2021/07/17 04:43:11;;;;;;;17.70;12.13;;;20.80;99.90;;;;;;5125220;27;20202;-66
2021/07/17 04:46:09;;;;;;;16.10;11.27;;;20.80;99.90;;;;;;5133670;27;20352;-65
2021/07/17 04:48:56;;;;;;;18.63;11.40;;;21.00;99.90;;;;;;5145100;27;20194;-66
2021/07/17 04:51:44;;;;;;;15.77;11.03;;;21.10;99.90;;;;;;5153873;27;20213;-65
2021/07/17 04:54:31;;;;;;;17.80;10.90;;;21.20;99.90;;;;;;5151826;27;20279;-66
2021/07/17 04:57:19;;;;;;;20.70;11.47;;;21.20;99.90;;;;;;5137617;27;20198;-65
2021/07/17 05:00:08;;;;;;;16.13;11.10;;;21.30;99.90;;;;;;5125871;27;20211;-66
2021/07/17 05:02:57;;;;;;;17.27;10.50;;;21.40;99.90;;;;;;5132950;27;20279;-66
2021/07/17 05:05:44;;;;;;;19.10;11.13;;;21.50;99.90;;;;;;5142100;27;20194;-65
2021/07/17 05:08:32;;;;;;;18.23;10.83;;;21.50;99.90;;;;;;5150944;27;20202;-66
2021/07/17 05:11:20;;;;;;;17.57;10.60;;;21.70;99.90;;;;;;5127301;27;20593;-66
2021/07/17 05:14:07;;;;;;;14.10;9.80;;;21.60;99.90;;;;;;5134800;27;20210;-65
2021/07/17 05:16:55;;;;;;;13.83;9.63;;;21.70;99.90;;;;;;5149319;27;20190;-66
2021/07/17 05:19:54;;;;;;;17.80;10.60;;;21.80;99.90;;;;;;5133703;27;20264;-65
2021/07/17 05:22:46;;;;;;;15.43;10.20;;;21.90;99.90;;;;;;5130115;27;20194;-65
2021/07/17 05:25:34;;;;;;;15.00;10.23;;;22.00;99.90;;;;;;5140197;27;20221;-65
2021/07/17 05:28:22;;;;;;;19.67;10.60;;;22.10;99.90;;;;;;5143182;27;20199;-65
2021/07/17 05:31:10;;;;;;;13.83;9.27;;;22.20;99.90;;;;;;5141828;27;20706;-65
2021/07/17 05:33:58;;;;;;;12.97;9.40;;;22.30;99.90;;;;;;5140518;27;20197;-65
2021/07/17 05:36:47;;;;;;;15.53;9.50;;;22.30;99.90;;;;;;5136597;27;20194;-65
2021/07/17 05:39:34;;;;;;;12.37;9.00;;;22.30;99.90;;;;;;5146341;27;20673;-66
2021/07/17 05:42:23;;;;;;;14.33;9.13;;;22.50;99.90;;;;;;5148334;27;20269;-66
2021/07/17 05:45:11;;;;;;;15.17;9.27;;;22.60;99.90;;;;;;5131541;27;20198;-66
2021/07/17 05:47:59;;;;;;;13.40;9.40;;;22.80;99.90;;;;;;5134069;27;20203;-66
2021/07/17 05:50:48;;;;;;;16.83;9.43;;;23.10;99.90;;;;;;5144956;27;20259;-66
2021/07/17 05:53:42;;;;;;;15.33;8.67;;;23.20;99.90;;;;;;5136288;27;20204;-66
2021/07/17 05:56:30;;;;;;;12.20;8.90;;;23.40;99.90;;;;;;5152808;27;20210;-66
2021/07/17 05:59:17;;;;;;;12.97;8.57;;;23.50;99.90;;;;;;5138415;27;20190;-65
2021/07/17 06:02:05;;;;;;;12.50;8.53;;;23.60;99.90;;;;;;5125572;27;20565;-65
2021/07/17 06:04:53;;;;;;;14.57;8.93;;;23.50;99.90;;;;;;5134101;27;20197;-65
2021/07/17 06:07:40;;;;;;;16.30;9.03;;;23.60;99.90;;;;;;5132809;27;20209;-65
2021/07/17 06:10:29;;;;;;;14.43;8.27;;;23.60;99.90;;;;;;5125641;27;20194;-65
2021/07/17 06:13:17;;;;;;;15.10;8.70;;;23.60;99.90;;;;;;5131704;27;20641;-66
2021/07/17 06:16:05;;;;;;;13.00;7.90;;;23.70;99.90;;;;;;5137189;27;20197;-65
2021/07/17 06:18:52;;;;;;;13.13;8.07;;;23.70;99.90;;;;;;5141284;27;20230;-66
2021/07/17 06:21:40;;;;;;;14.87;8.50;;;23.80;99.90;;;;;;5132794;27;20202;-66
2021/07/17 06:24:27;;;;;;;13.27;7.70;;;23.90;99.90;;;;;;5132610;27;20202;-65
2021/07/17 06:27:24;;;;;;;11.37;8.20;;;23.80;99.90;;;;;;5148549;27;20298;-66
2021/07/17 06:30:26;;;;;;;11.97;8.50;;;24.00;99.90;;;;;;5148452;27;20201;-66
2021/07/17 06:33:14;;;;;;;13.63;8.53;;;24.10;99.90;;;;;;5129114;27;20225;-65
2021/07/17 06:36:02;;;;;;;13.57;9.65;;;24.20;99.90;;;;;;5145913;27;20637;-66
2021/07/17 06:38:49;;;;;;;14.38;8.75;;;24.30;99.90;;;;;;5144263;27;20205;-66
2021/07/17 06:41:37;;;;;;;12.60;8.82;;;24.40;99.90;;;;;;5141384;27;20547;-66
2021/07/17 06:44:26;;;;;;;12.77;8.73;;;24.80;99.90;;;;;;5149234;27;20208;-65
2021/07/17 06:47:14;;;;;;;15.02;8.32;;;24.90;99.90;;;;;;5126469;27;20717;-65
2021/07/17 06:50:01;;;;;;;18.77;8.70;;;25.00;99.90;;;;;;5149839;27;20198;-66
2021/07/17 06:52:49;;;;;;;17.52;8.52;;;25.00;99.90;;;;;;5139278;27;20621;-65
2021/07/17 06:55:37;;;;;;;14.07;8.52;;;25.10;99.90;;;;;;5147973;27;20194;-65
2021/07/17 06:58:24;;;;;;;11.80;8.48;;;25.20;99.90;;;;;;5125620;27;20195;-65
2021/07/17 07:01:17;;;;;;;12.85;8.23;;;25.30;99.90;;;;;;5139861;27;20209;-65
2021/07/17 07:04:06;;;;;;;13.63;8.15;;;25.20;99.90;;;;;;5131361;27;20202;-66
2021/07/17 07:06:54;;;;;;;20.67;9.25;;;25.30;99.90;;;;;;5121186;27;20202;-66
2021/07/17 07:09:41;;;;;;;14.57;8.43;;;25.50;99.90;;;;;;5131655;27;20198;-65
2021/07/17 07:12:29;;;;;;;15.02;7.80;;;25.60;99.90;;;;;;5137252;27;20217;-65
2021/07/17 07:15:17;;;;;;;12.30;8.20;;;25.70;99.90;;;;;;5128929;27;20207;-65
2021/07/17 07:18:06;;;;;;;12.55;7.75;;;25.70;99.90;;;;;;5137219;27;20205;-66
2021/07/17 07:20:53;;;;;;;12.52;7.05;;;25.70;99.90;;;;;;5137061;27;20245;-65
2021/07/17 07:23:41;;;;;;;12.60;7.38;;;25.60;99.90;;;;;;5139548;27;20189;-66
2021/07/17 07:26:29;;;;;;;10.57;7.82;;;25.70;99.90;;;;;;5150261;27;20205;-66
2021/07/17 07:29:16;;;;;;;18.42;9.20;;;25.90;99.90;;;;;;5149631;27;20198;-65
2021/07/17 07:32:05;;;;;;;12.75;7.07;;;26.30;99.90;;;;;;5130395;27;20211;-66
2021/07/17 07:34:54;;;;;;;20.15;8.10;;;26.30;99.90;;;;;;5132055;27;20203;-66
2021/07/17 07:37:41;;;;;;;11.45;7.05;;;26.60;99.90;;;;;;5131585;27;20197;-65
2021/07/17 07:40:30;;;;;;;12.40;6.78;;;26.60;99.90;;;;;;5133576;27;20195;-65
2021/07/17 07:43:17;;;;;;;11.85;6.28;;;26.60;99.90;;;;;;5151080;27;20270;-66
2021/07/17 07:46:05;;;;;;;11.93;7.03;;;26.70;99.90;;;;;;5128443;27;20244;-66
2021/07/17 07:48:52;;;;;;;14.07;6.93;;;26.60;99.90;;;;;;5145062;27;20197;-66
2021/07/17 07:51:41;;;;;;;12.60;6.97;;;26.60;99.90;;;;;;5133816;27;20221;-65
2021/07/17 07:54:29;;;;;;;11.75;7.00;;;26.60;99.90;;;;;;5149003;27;20765;-66
2021/07/17 07:57:17;;;;;;;9.60;6.97;;;26.60;99.90;;;;;;5154940;27;20197;-65
2021/07/17 08:00:06;;;;;;;12.43;6.85;;;26.60;99.90;;;;;;5148550;27;20671;-65
2021/07/17 08:02:53;;;;;;;12.50;7.25;;;26.70;99.90;;;;;;5139266;27;20243;-66
2021/07/17 08:05:41;;;;;;;13.98;7.25;;;26.90;99.90;;;;;;5128580;27;20221;-66
2021/07/17 08:08:30;;;;;;;13.15;6.28;;;27.00;99.90;;;;;;5129218;27;20309;-66
2021/07/17 08:11:18;;;;;;;10.70;6.80;;;27.20;99.90;;;;;;5137389;27;20202;-66
2021/07/17 08:14:05;;;;;;;13.50;6.43;;;27.30;99.90;;;;;;5153682;27;20194;-65
2021/07/17 08:16:53;;;;;;;27.63;9.90;;;27.30;99.90;;;;;;5154954;27;20835;-66
2021/07/17 08:19:41;;;;;;;12.32;6.15;;;27.30;99.90;;;;;;5152923;27;20262;-66
2021/07/17 08:22:28;;;;;;;12.38;6.65;;;27.40;99.90;;;;;;5154883;27;20194;-66
2021/07/17 08:25:18;;;;;;;12.18;6.70;;;27.70;99.90;;;;;;5153115;27;20204;-65
2021/07/17 08:28:06;;;;;;;9.63;6.57;;;27.80;99.90;;;;;;5154446;27;20256;-66
2021/07/17 08:30:53;;;;;;;13.75;7.13;;;27.90;99.90;;;;;;5154343;27;20280;-66
2021/07/17 08:33:41;;;;;;;17.52;6.63;;;28.00;99.90;;;;;;5154186;27;20326;-67
2021/07/17 08:36:28;;;;;;;11.43;6.25;;;28.00;99.90;;;;;;5154175;27;20198;-66
2021/07/17 08:39:16;;;;;;;13.40;7.20;;;28.30;99.90;;;;;;5154420;27;20628;-65
2021/07/17 08:42:05;;;;;;;10.85;6.68;;;28.20;99.90;;;;;;5154059;27;20194;-66
2021/07/17 08:44:54;;;;;;;11.00;6.68;;;28.30;99.90;;;;;;5153464;27;20208;-66
2021/07/17 08:47:42;;;;;;;12.73;6.85;;;28.30;99.90;;;;;;5152915;27;20667;-66
2021/07/17 08:50:30;;;;;;;11.02;6.32;;;28.40;99.90;;;;;;5153396;27;20217;-66
2021/07/17 08:53:18;;;;;;;15.65;7.07;;;28.60;99.90;;;;;;5152956;27;20220;-66
2021/07/17 08:56:06;;;;;;;13.68;6.80;;;28.60;99.90;;;;;;5152786;27;20229;-66
2021/07/17 08:58:55;;;;;;;13.48;7.63;;;28.90;99.90;;;;;;5153239;27;20938;-66
2021/07/17 09:01:42;;;;;;;10.65;6.47;;;28.70;99.90;;;;;;5153150;27;20250;-67
2021/07/17 09:04:30;;;;;;;12.68;6.93;;;28.50;99.90;;;;;;5152907;27;20559;-66
2021/07/17 09:07:17;;;;;;;10.82;7.10;;;28.50;99.90;;;;;;5153063;27;20212;-66
2021/07/17 09:10:30;;;;;;;13.85;6.72;;;28.40;99.90;;;;;;5152911;27;20193;-66
2021/07/17 09:13:20;;;;;;;10.23;6.65;;;28.80;99.90;;;;;;5152986;27;20546;-66
2021/07/17 09:16:10;;;;;;;9.77;6.90;;;28.80;99.90;;;;;;5152596;27;20190;-66
2021/07/17 09:18:58;;;;;;;13.65;7.20;;;28.50;99.90;;;;;;5153193;27;20229;-66
2021/07/17 09:21:46;;;;;;;11.35;6.80;;;28.40;99.90;;;;;;5151968;27;20200;-66
2021/07/17 09:24:34;;;;;;;9.93;6.72;;;28.60;99.90;;;;;;5153342;27;20208;-66
2021/07/17 09:27:21;;;;;;;13.23;7.90;;;28.70;99.90;;;;;;5152325;27;20759;-66
2021/07/17 09:30:31;;;;;;;9.95;7.03;;;28.80;99.90;;;;;;5152578;27;20202;-66
2021/07/17 09:33:20;;;;;;;13.00;7.30;;;28.80;99.90;;;;;;5152173;27;20221;-66
2021/07/17 09:36:09;;;;;;;16.48;7.10;;;28.90;99.90;;;;;;5152077;27;20194;-66
2021/07/17 09:38:56;;;;;;;12.70;6.95;;;29.40;99.90;;;;;;5152909;27;20197;-66
2021/07/17 09:41:52;;;;;;;15.35;6.60;;;29.80;99.90;;;;;;5152186;27;20209;-66
2021/07/17 09:44:40;;;;;;;16.80;7.53;;;30.10;99.90;;;;;;5152010;27;20194;-66
2021/07/17 09:47:28;;;;;;;12.80;6.72;;;30.20;99.90;;;;;;5152728;27;20214;-66
2021/07/17 09:50:19;;;;;;;9.80;6.75;;;30.30;99.90;;;;;;5152314;27;20197;-66
2021/07/17 09:53:06;;;;;;;11.15;6.78;;;30.20;99.90;;;;;;5152472;27;20267;-66
2021/07/17 09:56:05;;;;;;;15.20;6.90;;;30.10;99.90;;;;;;5151645;27;20242;-66
2021/07/17 09:58:53;;;;;;;19.85;7.57;;;30.10;99.90;;;;;;5152556;27;20193;-66
2021/07/17 10:01:41;;;;;;;13.70;6.95;;;30.00;99.90;;;;;;5152948;27;20205;-66
2021/07/17 10:04:29;;;;;;;9.38;6.18;;;30.20;99.90;;;;;;5152260;27;20205;-66
2021/07/17 10:07:18;;;;;;;9.18;6.95;;;30.60;99.90;;;;;;5152517;27;20212;-66
2021/07/17 10:10:06;;;;;;;8.68;6.75;;;30.20;99.90;;;;;;5151915;27;20197;-66
2021/07/17 10:12:53;;;;;;;11.10;6.68;;;30.00;99.90;;;;;;5152086;27;20297;-66
2021/07/17 10:15:41;;;;;;;14.20;7.30;;;29.80;99.90;;;;;;5153373;27;20233;-66
2021/07/17 10:18:28;;;;;;;11.35;7.30;;;29.80;99.90;;;;;;5152075;27;20205;-66
2021/07/17 10:21:16;;;;;;;12.20;7.03;;;29.80;99.90;;;;;;5152120;27;20198;-66
2021/07/17 10:24:07;;;;;;;12.55;7.25;;;30.10;99.90;;;;;;5152306;27;20197;-66
2021/07/17 10:26:54;;;;;;;13.93;7.80;;;30.30;99.90;;;;;;5151655;27;20252;-66
2021/07/17 10:29:42;;;;;;;11.38;7.13;;;30.20;99.90;;;;;;5151039;27;20201;-66
2021/07/17 10:32:31;;;;;;;13.10;6.97;;;30.20;99.90;;;;;;5151304;27;20221;-66
2021/07/17 10:35:19;;;;;;;12.52;7.20;;;30.30;99.90;;;;;;5150879;27;20193;-66
2021/07/17 10:38:09;;;;;;;13.23;7.10;;;30.30;99.90;;;;;;5151787;27;20205;-66
2021/07/17 10:40:58;;;;;;;12.52;7.40;;;30.20;99.90;;;;;;5150785;27;20986;-66
2021/07/17 10:43:51;;;;;;;15.95;7.68;;;30.00;99.90;;;;;;5151334;27;20197;-65
2021/07/17 10:46:39;;;;;;;16.00;8.18;;;29.80;99.90;;;;;;5150575;27;20214;-66
2021/07/17 10:49:30;;;;;;;15.38;7.90;;;29.60;99.90;;;;;;5152640;27;20229;-66
2021/07/17 10:52:32;;;;;;;14.13;7.47;;;29.60;99.90;;;;;;5153169;27;20201;-66
2021/07/17 10:55:27;;;;;;;10.13;8.00;;;29.80;99.90;;;;;;5152560;27;20196;-66
2021/07/17 10:58:37;;;;;;;12.80;8.02;;;29.70;99.90;;;;;;5151567;27;20342;-66
2021/07/17 11:01:25;;;;;;;12.93;7.72;;;29.80;99.90;;;;;;5150668;27;20209;-66
2021/07/17 11:04:38;;;;;;;13.40;7.65;;;29.80;99.90;;;;;;5151746;27;20249;-66
2021/07/17 11:07:34;;;;;;;16.42;8.88;;;29.70;99.90;;;;;;5151719;27;20209;-66
2021/07/17 11:10:22;;;;;;;15.95;8.43;;;29.60;99.90;;;;;;5152678;27;20347;-66
2021/07/17 11:13:09;;;;;;;11.32;7.97;;;29.60;99.90;;;;;;5153480;27;20590;-66
2021/07/17 11:15:58;;;;;;;14.40;8.30;;;29.60;99.90;;;;;;5154585;27;20193;-66
2021/07/17 11:18:46;;;;;;;13.60;8.25;;;29.80;99.90;;;;;;5154907;27;20213;-66
2021/07/17 11:21:34;;;;;;;11.85;8.48;;;29.80;99.90;;;;;;5156164;27;20194;-66
2021/07/17 11:24:24;;;;;;;14.65;8.43;;;30.10;99.90;;;;;;5156256;27;20570;-66
2021/07/17 11:27:13;;;;;;;16.17;8.25;;;30.00;99.90;;;;;;5154772;27;20209;-66
2021/07/17 11:30:02;;;;;;;17.52;8.43;;;30.10;99.90;;;;;;5154665;27;20637;-66
2021/07/17 11:33:17;;;;;;;14.05;7.57;;;30.20;99.90;;;;;;5155466;27;20213;-66
2021/07/17 11:36:13;;;;;;;15.15;8.70;;;30.30;99.90;;;;;;5154647;27;20202;-66
2021/07/17 11:39:05;;;;;;;12.95;7.95;;;30.40;99.90;;;;;;5155378;27;20198;-65
2021/07/17 11:41:59;;;;;;;14.13;8.05;;;30.30;99.90;;;;;;5154794;27;20204;-65
2021/07/17 11:44:47;;;;;;;13.60;7.82;;;30.20;99.90;;;;;;5155770;27;20194;-66
2021/07/17 11:47:35;;;;;;;12.90;7.95;;;30.10;99.90;;;;;;5155061;27;20213;-66
2021/07/17 11:50:24;;;;;;;13.32;8.43;;;30.40;99.90;;;;;;5156301;27;20201;-65
2021/07/17 11:53:14;;;;;;;17.80;8.25;;;30.50;99.90;;;;;;5154870;27;20217;-66
2021/07/17 11:56:01;;;;;;;13.13;8.40;;;30.80;99.90;;;;;;5153846;27;20194;-66
2021/07/17 11:58:49;;;;;;;14.45;8.15;;;31.10;99.90;;;;;;5153508;27;20205;-66
2021/07/17 12:01:37;;;;;;;14.23;8.35;;;31.60;99.90;;;;;;5154050;27;20715;-65
2021/07/17 12:04:30;;;;;;;14.48;9.20;;;32.20;99.90;;;;;;5154748;27;20258;-66
2021/07/17 12:07:21;;;;;;;15.18;8.52;;;32.40;99.90;;;;;;5153802;27;20708;-66
2021/07/17 12:10:10;;;;;;;13.35;7.90;;;32.50;99.90;;;;;;5154280;27;20254;-66
2021/07/17 12:13:10;;;;;;;13.18;8.23;;;32.50;99.90;;;;;;5153830;27;20210;-66
2021/07/17 12:15:57;;;;;;;10.70;7.70;;;32.20;99.90;;;;;;5154076;27;20206;-65
2021/07/17 12:18:47;;;;;;;11.20;7.60;;;31.90;99.90;;;;;;5153156;27;20220;-66
2021/07/17 12:21:35;;;;;;;15.23;8.20;;;31.90;99.90;;;;;;5132870;27;20357;-66
2021/07/17 12:24:24;;;;;;;12.43;8.38;;;31.70;99.90;;;;;;5133005;27;20564;-66
2021/07/17 12:27:12;;;;;;;17.25;8.15;;;31.10;99.90;;;;;;5133401;27;20199;-66
2021/07/17 12:30:00;;;;;;;14.55;8.48;;;31.10;99.90;;;;;;5133988;27;20205;-66
2021/07/17 12:32:48;;;;;;;14.95;7.93;;;30.90;99.90;;;;;;5133675;27;20211;-66
2021/07/17 12:35:35;;;;;;;16.30;8.48;;;31.10;99.90;;;;;;5133757;27;20671;-66
2021/07/17 12:38:24;;;;;;;17.08;8.02;;;31.40;99.90;;;;;;5133322;27;20191;-66
2021/07/17 12:41:14;;;;;;;12.75;7.82;;;31.70;99.90;;;;;;5132729;27;20688;-66
2021/07/17 12:44:08;;;;;;;10.55;7.20;;;31.60;99.90;;;;;;5132870;27;20316;-66
2021/07/17 12:47:02;;;;;;;14.88;7.63;;;31.80;99.90;;;;;;5132655;27;20632;-66
2021/07/17 12:50:04;;;;;;;11.38;8.07;;;31.70;99.90;;;;;;5132831;27;20198;-66
2021/07/17 12:53:10;;;;;;;15.45;8.13;;;31.50;99.90;;;;;;5133439;27;20324;-66
2021/07/17 12:55:58;;;;;;;15.73;8.25;;;31.70;99.90;;;;;;5133145;27;20199;-66
2021/07/17 12:58:47;;;;;;;11.60;7.50;;;31.70;99.90;;;;;;5132464;27;20551;-66
2021/07/17 13:01:35;;;;;;;9.75;7.13;;;32.40;99.90;;;;;;5132906;27;20198;-66
2021/07/17 13:04:23;;;;;;;12.98;7.00;;;32.50;99.90;;;;;;5132575;27;20202;-66
2021/07/17 13:07:11;;;;;;;12.10;7.72;;;32.70;99.90;;;;;;5132964;27;20215;-66
2021/07/17 13:09:58;;;;;;;15.80;7.50;;;32.60;99.90;;;;;;5133114;27;20545;-66
2021/07/17 13:12:46;;;;;;;11.45;7.40;;;32.80;99.90;;;;;;5133306;27;20304;-66
2021/07/17 13:15:35;;;;;;;13.10;7.78;;;32.40;99.90;;;;;;5133174;27;20190;-66
2021/07/17 13:18:25;;;;;;;11.75;8.00;;;32.50;99.90;;;;;;5132541;27;20206;-66
2021/07/17 13:21:12;;;;;;;12.82;7.78;;;32.30;99.90;;;;;;5131528;27;20206;-66
2021/07/17 13:24:02;;;;;;;13.45;8.05;;;32.70;99.90;;;;;;5132009;27;20190;-66
2021/07/17 13:26:53;;;;;;;12.35;7.05;;;32.90;99.90;;;;;;5132493;27;20227;-66
2021/07/17 13:29:46;;;;;;;14.45;7.50;;;32.70;99.90;;;;;;5131741;27;20206;-66
2021/07/17 13:32:37;;;;;;;13.20;7.57;;;32.60;99.90;;;;;;5132323;27;20202;-66
2021/07/17 13:35:27;;;;;;;15.55;8.68;;;32.50;99.90;;;;;;5132274;27;20191;-66
2021/07/17 13:38:16;;;;;;;14.30;8.23;;;32.20;99.90;;;;;;5130771;27;20202;-66
2021/07/17 13:41:11;;;;;;;18.30;8.23;;;32.40;99.90;;;;;;5133260;27;20558;-66
2021/07/17 13:44:12;;;;;;;12.20;8.80;;;33.00;99.90;;;;;;5132746;27;20210;-66
2021/07/17 13:47:14;;;;;;;13.40;7.97;;;33.20;99.90;;;;;;5130885;27;20663;-66
2021/07/17 13:50:03;;;;;;;15.57;7.80;;;33.00;99.90;;;;;;5131548;27;20225;-66
2021/07/17 13:53:04;;;;;;;14.23;8.43;;;33.10;99.90;;;;;;5132371;27;20822;-66
2021/07/17 13:55:53;;;;;;;13.77;7.72;;;33.30;99.90;;;;;;5131386;27;20197;-66
2021/07/17 13:58:42;;;;;;;11.13;8.30;;;33.20;99.90;;;;;;5132462;27;20194;-66
2021/07/17 14:01:31;;;;;;;14.90;8.57;;;33.00;99.90;;;;;;5131198;27;20194;-66
2021/07/17 14:04:19;;;;;;;14.18;8.27;;;33.10;99.90;;;;;;5131200;27;20247;-66
2021/07/17 14:07:08;;;;;;;16.65;8.27;;;33.00;99.90;;;;;;5131648;27;20206;-66
2021/07/17 14:09:56;;;;;;;12.88;7.93;;;33.10;99.90;;;;;;5131527;27;20194;-66
2021/07/17 14:12:43;;;;;;;13.35;8.77;;;33.10;99.90;;;;;;5131702;27;20225;-66
2021/07/17 14:15:33;;;;;;;11.60;8.65;;;33.00;99.90;;;;;;5132168;27;20305;-66
2021/07/17 14:18:21;;;;;;;15.23;8.70;;;32.70;99.90;;;;;;5130341;27;20226;-66
2021/07/17 14:21:09;;;;;;;14.93;8.65;;;32.70;99.90;;;;;;5112241;28;20717;-66
2021/07/17 14:24:09;;;;;;;15.07;8.82;;;32.30;99.90;;;;;;5111233;28;20195;-66
2021/07/17 14:27:01;;;;;;;15.05;8.45;;;31.80;99.90;;;;;;5110339;28;20198;-67